createdAt,value
2022-08-18T00:00:29.445Z,16.73
2022-08-18T00:01:29.526Z,16.68
2022-08-18T00:02:29.906Z,16.73
2022-08-18T00:03:57.199Z,16.77
2022-08-18T00:04:35.323Z,16.73
2022-08-18T00:05:30.589Z,16.68
2022-08-18T00:06:29.927Z,16.70
2022-08-18T00:07:29.359Z,16.75
2022-08-18T00:08:29.350Z,16.67
2022-08-18T00:09:32.446Z,16.63
2022-08-18T00:10:29.455Z,16.63
2022-08-18T00:11:41.221Z,16.70
2022-08-18T00:12:30.312Z,16.65
2022-08-18T00:13:29.300Z,16.68
2022-08-18T00:14:29.293Z,16.65
2022-08-18T00:15:29.502Z,16.63
2022-08-18T00:16:29.269Z,16.58
2022-08-18T00:17:29.266Z,16.62
2022-08-18T00:18:29.499Z,16.70
2022-08-18T00:19:47.635Z,16.60
2022-08-18T00:20:30.342Z,16.65
2022-08-18T00:21:29.233Z,16.62
2022-08-18T00:22:29.268Z,16.63
2022-08-18T00:23:29.271Z,16.60
2022-08-18T00:24:29.396Z,16.58
2022-08-18T00:25:29.197Z,16.59
2022-08-18T00:26:32.349Z,16.58
2022-08-18T00:27:30.164Z,16.52
2022-08-18T00:28:29.182Z,16.53
2022-08-18T00:29:29.351Z,16.44
2022-08-18T00:30:29.161Z,16.42
2022-08-18T00:31:29.164Z,16.40
2022-08-18T00:32:29.188Z,16.40
2022-08-18T00:33:29.121Z,16.42
2022-08-18T00:34:29.096Z,16.40
2022-08-18T00:35:29.393Z,16.38
2022-08-18T00:36:29.110Z,16.35
2022-08-18T00:37:29.075Z,16.38
2022-08-18T00:38:29.058Z,16.41
2022-08-18T00:39:29.341Z,16.40
2022-08-18T00:40:32.364Z,16.40
2022-08-18T00:41:30.045Z,16.40
2022-08-18T00:42:31.142Z,16.48
2022-08-18T00:43:29.014Z,16.42
2022-08-18T00:44:28.994Z,16.37
2022-08-18T00:45:28.993Z,16.40
2022-08-18T00:46:28.991Z,16.40
2022-08-18T00:47:36.426Z,16.37
2022-08-18T00:48:29.969Z,16.40
2022-08-18T00:49:28.949Z,16.49
2022-08-18T00:50:29.158Z,16.45
2022-08-18T00:51:28.954Z,16.55
2022-08-18T00:52:28.916Z,16.49
2022-08-18T00:53:28.907Z,16.50
2022-08-18T00:54:28.903Z,16.62
2022-08-18T00:55:28.889Z,16.59
2022-08-18T00:56:28.893Z,16.56
2022-08-18T00:57:28.872Z,16.60
2022-08-18T00:58:28.865Z,16.59
2022-08-18T00:59:28.851Z,16.59
2022-08-18T01:00:28.947Z,16.63
2022-08-18T01:01:28.897Z,16.58
2022-08-18T01:02:28.814Z,16.63
2022-08-18T01:03:28.809Z,16.60
2022-08-18T01:04:28.800Z,16.55
2022-08-18T01:05:28.786Z,16.49
2022-08-18T01:06:29.049Z,16.52
2022-08-18T01:07:28.774Z,16.56
2022-08-18T01:08:29.383Z,16.53
2022-08-18T01:09:28.749Z,16.50
2022-08-18T01:10:28.884Z,16.53
2022-08-18T01:11:28.922Z,16.53
2022-08-18T01:12:45.376Z,16.49
2022-08-18T01:13:29.716Z,16.52
2022-08-18T01:14:28.698Z,16.48
2022-08-18T01:15:30.361Z,16.45
2022-08-18T01:16:28.689Z,16.50
2022-08-18T01:17:28.670Z,16.45
2022-08-18T01:18:28.649Z,16.41
2022-08-18T01:19:28.645Z,16.45
2022-08-18T01:20:28.639Z,16.40
2022-08-18T01:21:28.645Z,16.41
2022-08-18T01:22:28.619Z,16.41
2022-08-18T01:23:28.607Z,16.34
2022-08-18T01:24:28.801Z,16.20
2022-08-18T01:25:28.648Z,16.14
2022-08-18T01:26:28.599Z,16.20
2022-08-18T01:27:28.786Z,16.23
2022-08-18T01:28:28.556Z,16.25
2022-08-18T01:29:28.555Z,16.09
2022-08-18T01:30:28.529Z,16.15
2022-08-18T01:31:28.530Z,16.18
2022-08-18T01:32:28.566Z,16.18
2022-08-18T01:33:30.185Z,16.14
2022-08-18T01:34:28.717Z,16.04
2022-08-18T01:35:28.485Z,16.12
2022-08-18T01:36:29.487Z,16.09
2022-08-18T01:37:28.543Z,16.12
2022-08-18T01:38:28.458Z,16.14
2022-08-18T01:41:22.510Z,16.16
2022-08-18T01:41:25.074Z,16.15
2022-08-18T01:41:30.754Z,16.15
2022-08-18T01:42:28.428Z,16.01
2022-08-18T01:43:28.411Z,15.96
2022-08-18T01:44:28.395Z,15.96
2022-08-18T01:45:28.386Z,16.01
2022-08-18T01:46:28.406Z,15.94
2022-08-18T01:47:28.385Z,16.03
2022-08-18T01:48:28.360Z,16.07
2022-08-18T01:49:28.411Z,16.11
2022-08-18T01:50:28.338Z,16.09
2022-08-18T01:51:38.112Z,16.04
2022-08-18T01:52:29.326Z,16.14
2022-08-18T01:53:28.312Z,16.06
2022-08-18T01:54:28.296Z,16.03
2022-08-18T01:55:28.303Z,15.99
2022-08-18T01:56:28.303Z,16.01
2022-08-18T01:57:28.284Z,16.00
2022-08-18T01:58:31.640Z,16.03
2022-08-18T01:59:28.392Z,16.07
2022-08-18T02:00:28.262Z,16.03
2022-08-18T02:01:36.623Z,16.07
2022-08-18T02:02:29.250Z,16.15
2022-08-18T02:03:28.374Z,16.16
2022-08-18T02:04:36.896Z,16.15
2022-08-18T02:05:29.191Z,16.06
2022-08-18T02:06:32.120Z,16.16
2022-08-18T02:07:36.150Z,16.15
2022-08-18T02:08:29.160Z,16.20
2022-08-18T02:09:28.151Z,16.27
2022-08-18T02:10:28.137Z,16.25
2022-08-18T02:11:28.121Z,16.23
2022-08-18T02:12:28.132Z,16.12
2022-08-18T02:13:28.130Z,16.14
2022-08-18T02:14:28.096Z,16.12
2022-08-18T02:15:28.088Z,16.06
2022-08-18T02:16:28.081Z,16.11
2022-08-18T02:17:28.079Z,16.06
2022-08-18T02:18:47.608Z,15.96
2022-08-18T02:19:29.043Z,16.09
2022-08-18T02:20:28.044Z,16.04
2022-08-18T02:21:28.029Z,16.03
2022-08-18T02:22:28.215Z,15.96
2022-08-18T02:23:28.022Z,15.97
2022-08-18T02:24:28.261Z,15.93
2022-08-18T02:25:27.989Z,15.92
2022-08-18T02:26:28.079Z,16.03
2022-08-18T02:27:28.207Z,15.96
2022-08-18T02:28:30.688Z,15.94
2022-08-18T02:29:27.952Z,15.92
2022-08-18T02:30:27.938Z,15.96
2022-08-18T02:31:27.929Z,15.97
2022-08-18T02:32:29.422Z,15.92
2022-08-18T02:33:27.913Z,15.96
2022-08-18T02:34:27.908Z,15.96
2022-08-18T02:35:27.886Z,15.96
2022-08-18T02:36:27.883Z,16.00
2022-08-18T02:37:27.885Z,15.89
2022-08-18T02:38:27.883Z,15.93
2022-08-18T02:39:27.868Z,15.97
2022-08-18T02:40:27.845Z,15.89
2022-08-18T02:41:29.338Z,15.92
2022-08-18T02:42:27.841Z,15.82
2022-08-18T02:43:27.810Z,15.79
2022-08-18T02:44:27.811Z,15.78
2022-08-18T02:45:27.792Z,15.78
2022-08-18T02:46:29.280Z,15.76
2022-08-18T02:47:33.030Z,15.75
2022-08-18T02:48:28.771Z,15.75
2022-08-18T02:49:27.752Z,15.78
2022-08-18T02:50:27.744Z,15.79
2022-08-18T02:51:27.730Z,15.86
2022-08-18T02:52:27.741Z,15.93
2022-08-18T02:53:27.713Z,15.99
2022-08-18T02:54:27.704Z,15.97
2022-08-18T02:55:27.694Z,16.01
2022-08-18T02:56:40.525Z,15.97
2022-08-18T02:57:28.686Z,16.03
2022-08-18T02:58:33.166Z,16.03
2022-08-18T02:59:32.097Z,16.14
2022-08-18T03:00:28.648Z,16.12
2022-08-18T03:01:27.671Z,16.04
2022-08-18T03:02:27.634Z,15.99
2022-08-18T03:03:27.609Z,16.03
2022-08-18T03:04:29.486Z,16.11
2022-08-18T03:05:27.591Z,16.04
2022-08-18T03:06:27.583Z,16.04
2022-08-18T03:07:27.589Z,15.96
2022-08-18T03:08:27.561Z,16.20
2022-08-18T03:09:27.546Z,16.12
2022-08-18T03:10:32.868Z,16.09
2022-08-18T03:11:28.534Z,16.11
2022-08-18T03:12:27.537Z,16.06
2022-08-18T03:13:27.516Z,16.00
2022-08-18T03:14:27.625Z,16.11
2022-08-18T03:15:27.493Z,15.94
2022-08-18T03:16:27.495Z,15.92
2022-08-18T03:17:27.777Z,15.97
2022-08-18T03:18:27.465Z,15.76
2022-08-18T03:19:27.458Z,15.70
2022-08-18T03:20:30.529Z,15.72
2022-08-18T03:21:27.436Z,15.75
2022-08-18T03:22:29.550Z,15.72
2022-08-18T03:23:30.363Z,15.72
2022-08-18T03:24:27.405Z,15.75
2022-08-18T03:25:27.430Z,15.68
2022-08-18T03:26:27.387Z,15.78
2022-08-18T03:27:27.394Z,15.75
2022-08-18T03:28:27.366Z,15.67
2022-08-18T03:29:31.946Z,15.64
2022-08-18T03:30:27.342Z,15.54
2022-08-18T03:31:27.848Z,15.60
2022-08-18T03:32:27.328Z,15.61
2022-08-18T03:33:27.446Z,15.59
2022-08-18T03:34:27.318Z,15.61
2022-08-18T03:35:27.296Z,15.72
2022-08-18T03:36:27.288Z,15.79
2022-08-18T03:37:27.283Z,15.85
2022-08-18T03:38:27.286Z,15.92
2022-08-18T03:39:27.281Z,15.96
2022-08-18T03:40:27.243Z,15.94
2022-08-18T03:41:43.834Z,16.04
2022-08-18T03:42:28.253Z,16.04
2022-08-18T03:43:50.618Z,15.93
2022-08-18T03:44:28.216Z,15.81
2022-08-18T03:45:27.195Z,15.78
2022-08-18T03:46:27.195Z,15.76
2022-08-18T03:47:27.211Z,15.74
2022-08-18T03:48:27.186Z,15.81
2022-08-18T03:49:27.228Z,15.75
2022-08-18T03:50:27.153Z,15.82
2022-08-18T03:51:27.142Z,15.85
2022-08-18T03:52:27.136Z,15.89
2022-08-18T03:53:27.142Z,15.92
2022-08-18T03:54:27.215Z,15.93
2022-08-18T03:55:27.295Z,15.97
2022-08-18T03:56:27.091Z,16.00
2022-08-18T03:57:27.339Z,15.97
2022-08-18T03:58:27.085Z,15.92
2022-08-18T03:59:27.062Z,16.03
2022-08-18T04:00:27.058Z,16.03
2022-08-18T04:01:27.345Z,16.04
2022-08-18T04:02:27.030Z,16.06
2022-08-18T04:03:27.029Z,16.06
2022-08-18T04:04:27.007Z,16.14
2022-08-18T04:05:26.993Z,16.12
2022-08-18T04:06:30.223Z,16.15
2022-08-18T04:07:26.995Z,16.20
2022-08-18T04:08:26.974Z,16.12
2022-08-18T04:09:26.959Z,15.99
2022-08-18T04:10:26.944Z,16.00
2022-08-18T04:11:26.929Z,15.94
2022-08-18T04:12:26.946Z,15.96
2022-08-18T04:13:26.933Z,15.92
2022-08-18T04:14:26.911Z,15.93
2022-08-18T04:15:26.893Z,15.82
2022-08-18T04:16:26.896Z,15.82
2022-08-18T04:17:26.883Z,15.85
2022-08-18T04:18:26.887Z,15.93
2022-08-18T04:19:27.999Z,15.99
2022-08-18T04:20:26.854Z,15.93
2022-08-18T04:21:26.844Z,15.93
2022-08-18T04:22:26.831Z,15.92
2022-08-18T04:23:26.834Z,16.03
2022-08-18T04:24:28.124Z,15.96
2022-08-18T04:25:32.185Z,15.96
2022-08-18T04:26:27.793Z,15.93
2022-08-18T04:27:26.783Z,15.93
2022-08-18T04:28:26.938Z,15.88
2022-08-18T04:29:26.762Z,15.89
2022-08-18T04:30:26.758Z,15.94
2022-08-18T04:31:26.742Z,15.96
2022-08-18T04:32:29.983Z,16.12
2022-08-18T04:33:26.741Z,16.12
2022-08-18T04:34:26.716Z,16.16
2022-08-18T04:35:26.708Z,16.20
2022-08-18T04:36:26.696Z,16.26
2022-08-18T04:37:26.684Z,16.30
2022-08-18T04:38:26.909Z,16.40
2022-08-18T04:39:26.861Z,16.33
2022-08-18T04:40:26.770Z,16.34
2022-08-18T04:41:26.643Z,16.37
2022-08-18T04:42:26.647Z,16.41
2022-08-18T04:43:26.817Z,16.38
2022-08-18T04:44:26.617Z,16.42
2022-08-18T04:45:26.603Z,16.45
2022-08-18T04:46:26.604Z,16.45
2022-08-18T04:47:26.611Z,16.53
2022-08-18T04:48:26.589Z,16.55
2022-08-18T04:49:26.573Z,16.52
2022-08-18T04:50:26.753Z,16.52
2022-08-18T04:52:30.772Z,16.52
2022-08-18T04:52:39.716Z,16.45
2022-08-18T04:53:27.545Z,16.53
2022-08-18T04:54:26.631Z,16.48
2022-08-18T04:55:26.704Z,16.40
2022-08-18T04:56:26.494Z,16.52
2022-08-18T04:57:26.537Z,16.40
2022-08-18T04:58:26.498Z,16.45
2022-08-18T04:59:26.703Z,16.52
2022-08-18T05:00:26.466Z,16.55
2022-08-18T05:01:26.504Z,16.53
2022-08-18T05:02:26.494Z,16.56
2022-08-18T05:03:26.448Z,16.56
2022-08-18T05:04:26.421Z,16.62
2022-08-18T05:05:26.404Z,16.60
2022-08-18T05:06:26.405Z,16.62
2022-08-18T05:07:26.393Z,16.67
2022-08-18T05:08:26.396Z,16.67
2022-08-18T05:09:26.371Z,16.65
2022-08-18T05:10:26.362Z,16.62
2022-08-18T05:11:26.352Z,16.60
2022-08-18T05:12:26.867Z,16.58
2022-08-18T05:13:26.345Z,16.65
2022-08-18T05:14:26.333Z,16.70
2022-08-18T05:15:26.343Z,16.67
2022-08-18T05:16:27.541Z,16.63
2022-08-18T05:17:26.294Z,16.70
2022-08-18T05:18:26.739Z,16.77
2022-08-18T05:19:26.277Z,16.63
2022-08-18T05:20:26.321Z,16.83
2022-08-18T05:21:26.252Z,16.85
2022-08-18T05:22:28.854Z,16.86
2022-08-18T05:23:27.252Z,16.81
2022-08-18T05:24:29.619Z,16.96
2022-08-18T05:25:26.245Z,16.89
2022-08-18T05:26:26.210Z,16.99
2022-08-18T05:27:26.192Z,16.95
2022-08-18T05:28:26.204Z,17.03
2022-08-18T05:29:26.216Z,17.03
2022-08-18T05:30:26.164Z,17.08
2022-08-18T05:31:26.162Z,17.11
2022-08-18T05:32:37.104Z,17.00
2022-08-18T05:33:27.151Z,17.06
2022-08-18T05:34:26.133Z,16.99
2022-08-18T05:35:26.128Z,16.99
2022-08-18T05:36:26.113Z,17.10
2022-08-18T05:37:26.106Z,17.07
2022-08-18T05:38:26.278Z,17.14
2022-08-18T05:39:26.128Z,17.15
2022-08-18T05:40:26.139Z,17.38
2022-08-18T05:41:26.056Z,17.29
2022-08-18T05:42:26.056Z,17.41
2022-08-18T05:43:26.057Z,17.51
2022-08-18T05:44:26.029Z,17.48
2022-08-18T05:45:26.021Z,17.48
2022-08-18T05:46:26.005Z,17.48
2022-08-18T05:47:25.996Z,17.48
2022-08-18T05:48:26.026Z,17.46
2022-08-18T05:49:25.969Z,17.47
2022-08-18T05:50:25.971Z,17.55
2022-08-18T05:51:25.955Z,17.57
2022-08-18T05:52:25.949Z,17.69
2022-08-18T05:53:25.937Z,17.70
2022-08-18T05:54:26.052Z,17.76
2022-08-18T05:55:25.910Z,17.92
2022-08-18T05:56:25.910Z,17.95
2022-08-18T05:57:25.895Z,17.92
2022-08-18T05:58:33.532Z,17.97
2022-08-18T05:59:26.940Z,18.04
2022-08-18T06:00:25.875Z,18.09
2022-08-18T06:01:25.862Z,18.10
2022-08-18T06:02:25.861Z,18.25
2022-08-18T06:03:25.955Z,18.21
2022-08-18T06:04:25.856Z,18.40
2022-08-18T06:05:25.833Z,18.33
2022-08-18T06:06:25.811Z,18.47
2022-08-18T06:07:25.798Z,18.44
2022-08-18T06:08:26.801Z,18.54
2022-08-18T06:09:25.798Z,18.47
2022-08-18T06:10:25.770Z,18.54
2022-08-18T06:11:25.862Z,18.58
2022-08-18T06:12:25.785Z,18.67
2022-08-18T06:13:25.746Z,18.64
2022-08-18T06:14:25.759Z,18.65
2022-08-18T06:15:25.726Z,18.55
2022-08-18T06:16:25.717Z,18.55
2022-08-18T06:17:25.707Z,18.70
2022-08-18T06:18:25.701Z,18.74
2022-08-18T06:19:25.702Z,18.68
2022-08-18T06:20:25.683Z,18.61
2022-08-18T06:21:25.669Z,18.64
2022-08-18T06:22:25.671Z,18.84
2022-08-18T06:23:25.651Z,18.86
2022-08-18T06:24:25.656Z,18.83
2022-08-18T06:25:25.636Z,18.98
2022-08-18T06:26:25.623Z,18.98
2022-08-18T06:27:25.624Z,19.06
2022-08-18T06:28:25.606Z,19.05
2022-08-18T06:29:25.615Z,19.08
2022-08-18T06:30:25.587Z,19.20
2022-08-18T06:31:29.320Z,19.25
2022-08-18T06:32:25.565Z,19.20
2022-08-18T06:33:25.563Z,19.17
2022-08-18T06:34:25.611Z,19.08
2022-08-18T06:35:25.548Z,19.11
2022-08-18T06:36:25.529Z,19.05
2022-08-18T06:37:25.520Z,19.06
2022-08-18T06:38:25.519Z,19.11
2022-08-18T06:39:25.521Z,19.23
2022-08-18T06:40:25.489Z,19.29
2022-08-18T06:41:42.414Z,19.31
2022-08-18T06:42:26.476Z,19.38
2022-08-18T06:43:25.462Z,19.42
2022-08-18T06:44:25.458Z,19.53
2022-08-18T06:45:25.440Z,19.57
2022-08-18T06:46:26.433Z,19.57
2022-08-18T06:47:25.428Z,19.58
2022-08-18T06:48:25.412Z,19.57
2022-08-18T06:49:25.423Z,19.51
2022-08-18T06:50:25.393Z,19.51
2022-08-18T06:51:25.388Z,19.51
2022-08-18T06:52:25.405Z,19.54
2022-08-18T06:53:27.708Z,19.57
2022-08-18T06:54:25.353Z,19.58
2022-08-18T06:55:25.367Z,19.61
2022-08-18T06:56:26.252Z,19.51
2022-08-18T06:57:25.343Z,19.48
2022-08-18T06:58:25.371Z,19.58
2022-08-18T06:59:25.313Z,19.57
2022-08-18T07:00:25.348Z,19.58
2022-08-18T07:01:25.355Z,19.60
2022-08-18T07:02:25.306Z,19.65
2022-08-18T07:03:25.278Z,19.79
2022-08-18T07:04:25.262Z,19.86
2022-08-18T07:05:25.274Z,19.95
2022-08-18T07:06:25.249Z,19.75
2022-08-18T07:07:25.238Z,19.86
2022-08-18T07:08:25.228Z,20.02
2022-08-18T07:09:25.221Z,19.90
2022-08-18T07:10:25.317Z,20.05
2022-08-18T07:11:25.194Z,20.18
2022-08-18T07:12:30.455Z,20.03
2022-08-18T07:13:25.175Z,19.91
2022-08-18T07:14:25.161Z,19.98
2022-08-18T07:15:25.173Z,19.78
2022-08-18T07:16:46.984Z,19.69
2022-08-18T07:17:42.773Z,19.69
2022-08-18T07:18:26.353Z,19.78
2022-08-18T07:19:25.118Z,19.79
2022-08-18T07:20:25.222Z,19.73
2022-08-18T07:21:25.096Z,19.70
2022-08-18T07:22:29.951Z,19.75
2022-08-18T07:23:26.079Z,19.75
2022-08-18T07:24:25.699Z,19.83
2022-08-18T07:25:25.073Z,19.86
2022-08-18T07:26:25.044Z,19.93
2022-08-18T07:27:25.036Z,19.93
2022-08-18T07:28:25.032Z,20.03
2022-08-18T07:29:25.027Z,20.06
2022-08-18T07:30:25.024Z,20.13
2022-08-18T07:31:25.028Z,20.30
2022-08-18T07:32:24.995Z,20.34
2022-08-18T07:33:24.984Z,20.38
2022-08-18T07:34:24.968Z,20.50
2022-08-18T07:35:24.977Z,20.66
2022-08-18T07:36:24.952Z,20.76
2022-08-18T07:37:28.537Z,20.87
2022-08-18T07:38:41.868Z,21.02
2022-08-18T07:39:25.926Z,20.93
2022-08-18T07:40:24.933Z,20.81
2022-08-18T07:41:24.906Z,20.59
2022-08-18T07:42:53.865Z,20.53
2022-08-18T07:43:25.890Z,20.51
2022-08-18T07:44:24.872Z,20.54
2022-08-18T07:45:25.072Z,20.69
2022-08-18T07:46:24.853Z,20.83
2022-08-18T07:47:25.094Z,21.02
2022-08-18T07:48:38.264Z,21.26
2022-08-18T07:49:25.831Z,21.36
2022-08-18T07:50:57.381Z,21.48
2022-08-18T07:51:27.048Z,21.42
2022-08-18T07:52:43.872Z,21.44
2022-08-18T07:53:25.784Z,21.41
2022-08-18T07:54:48.411Z,21.64
2022-08-18T07:55:25.835Z,21.78
2022-08-18T07:56:24.753Z,21.90
2022-08-18T07:57:24.747Z,21.99
2022-08-18T07:58:24.740Z,21.99
2022-08-18T07:59:24.724Z,22.16
2022-08-18T08:00:54.931Z,22.07
2022-08-18T08:01:25.996Z,22.16
2022-08-18T08:02:24.702Z,22.19
2022-08-18T08:03:24.692Z,22.23
2022-08-18T08:04:25.711Z,22.25
2022-08-18T08:05:24.687Z,22.39
2022-08-18T08:06:24.654Z,22.44
2022-08-18T08:07:25.584Z,22.50
2022-08-18T08:08:25.501Z,22.59
2022-08-18T08:09:24.629Z,22.71
2022-08-18T08:10:24.629Z,22.72
2022-08-18T08:11:24.607Z,22.87
2022-08-18T08:12:24.594Z,22.86
2022-08-18T08:13:44.105Z,22.84
2022-08-18T08:14:26.668Z,22.87
2022-08-18T08:15:26.630Z,22.97
2022-08-18T08:16:24.562Z,22.87
2022-08-18T08:17:24.545Z,22.80
2022-08-18T08:18:24.537Z,22.78
2022-08-18T08:19:42.633Z,22.82
2022-08-18T08:20:25.537Z,22.82
2022-08-18T08:21:25.518Z,22.78
2022-08-18T08:22:24.552Z,22.57
2022-08-18T08:23:24.497Z,22.44
2022-08-18T08:24:24.480Z,22.23
2022-08-18T08:25:45.169Z,22.20
2022-08-18T08:26:25.478Z,22.16
2022-08-18T08:27:24.457Z,22.09
2022-08-18T08:28:24.439Z,21.98
2022-08-18T08:29:24.433Z,21.97
2022-08-18T08:30:24.419Z,21.69
2022-08-18T08:31:39.488Z,21.74
2022-08-18T08:32:25.426Z,21.82
2022-08-18T08:33:24.392Z,21.60
2022-08-18T08:34:24.380Z,21.74
2022-08-18T08:35:48.753Z,21.67
2022-08-18T08:36:25.366Z,21.67
2022-08-18T08:37:24.360Z,21.64
2022-08-18T08:38:39.921Z,21.61
2022-08-18T08:39:25.333Z,21.50
2022-08-18T08:40:24.375Z,21.30
2022-08-18T08:41:24.324Z,21.36
2022-08-18T08:42:29.652Z,21.42
2022-08-18T08:43:25.295Z,21.42
2022-08-18T08:44:25.028Z,21.38
2022-08-18T08:45:26.391Z,21.50
2022-08-18T08:46:24.280Z,21.50
2022-08-18T08:47:24.255Z,21.56
2022-08-18T08:48:24.248Z,21.51
2022-08-18T08:49:24.298Z,21.53
2022-08-18T08:50:24.452Z,21.59
2022-08-18T08:51:24.237Z,21.60
2022-08-18T08:52:25.205Z,21.56
2022-08-18T08:53:24.189Z,21.56
2022-08-18T08:54:24.199Z,21.53
2022-08-18T08:55:24.210Z,21.45
2022-08-18T08:56:24.178Z,21.35
2022-08-18T08:57:24.188Z,21.30
2022-08-18T08:58:24.925Z,21.27
2022-08-18T08:59:24.140Z,21.13
2022-08-18T09:00:24.154Z,21.19
2022-08-18T09:01:24.223Z,21.17
2022-08-18T09:02:46.874Z,21.19
2022-08-18T09:03:30.009Z,21.16
2022-08-18T09:04:25.077Z,21.05
2022-08-18T09:05:24.076Z,21.08
2022-08-18T09:06:24.075Z,21.09
2022-08-18T09:07:24.052Z,21.16
2022-08-18T09:08:24.045Z,21.17
2022-08-18T09:09:24.030Z,21.14
2022-08-18T09:10:24.024Z,21.11
2022-08-18T09:11:24.026Z,21.13
2022-08-18T09:12:24.001Z,21.08
2022-08-18T09:13:28.827Z,21.04
2022-08-18T09:14:25.002Z,21.04
2022-08-18T09:15:23.973Z,21.06
2022-08-18T09:16:23.996Z,21.01
2022-08-18T09:17:23.951Z,21.02
2022-08-18T09:18:23.947Z,21.02
2022-08-18T09:19:23.939Z,21.05
2022-08-18T09:20:23.917Z,20.99
2022-08-18T09:21:23.931Z,20.99
2022-08-18T09:22:23.901Z,20.89
2022-08-18T09:23:23.903Z,20.93
2022-08-18T09:24:23.879Z,20.90
2022-08-18T09:25:23.877Z,20.99
2022-08-18T09:26:23.877Z,20.96
2022-08-18T09:27:23.858Z,20.99
2022-08-18T09:28:23.842Z,20.99
2022-08-18T09:29:23.840Z,20.99
2022-08-18T09:30:23.828Z,20.95
2022-08-18T09:31:23.896Z,20.95
2022-08-18T09:32:24.167Z,20.95
2022-08-18T09:33:23.848Z,20.91
2022-08-18T09:34:24.398Z,21.04
2022-08-18T09:35:23.774Z,21.05
2022-08-18T09:36:26.031Z,20.98
2022-08-18T09:37:24.449Z,21.01
2022-08-18T09:38:23.740Z,20.95
2022-08-18T09:39:23.743Z,20.98
2022-08-18T09:40:44.396Z,20.89
2022-08-18T09:41:24.727Z,20.99
2022-08-18T09:42:23.701Z,21.08
2022-08-18T09:43:24.692Z,21.02
2022-08-18T09:44:26.770Z,21.09
2022-08-18T09:45:23.676Z,21.09
2022-08-18T09:46:23.675Z,21.16
2022-08-18T09:47:23.749Z,21.08
2022-08-18T09:49:24.630Z,21.21
2022-08-18T09:50:27.261Z,21.36
2022-08-18T09:51:23.621Z,21.44
2022-08-18T09:52:24.485Z,21.46
2022-08-18T09:53:23.589Z,21.54
2022-08-18T09:54:25.160Z,21.54
2022-08-18T09:55:23.565Z,21.61
2022-08-18T09:56:28.746Z,21.72
2022-08-18T09:57:24.586Z,21.78
2022-08-18T09:58:25.805Z,21.91
2022-08-18T09:59:23.525Z,21.97
2022-08-18T10:00:24.320Z,22.07
2022-08-18T10:01:23.655Z,22.19
2022-08-18T10:02:28.066Z,22.17
2022-08-18T10:04:28.180Z,22.20
2022-08-18T10:05:23.468Z,22.12
2022-08-18T10:06:26.928Z,21.81
2022-08-18T10:07:23.456Z,21.78
2022-08-18T10:09:36.069Z,21.51
2022-08-18T10:11:00.599Z,21.36
2022-08-18T10:11:24.442Z,21.32
2022-08-18T10:12:23.402Z,21.13
2022-08-18T10:13:24.959Z,21.09
2022-08-18T10:14:23.389Z,21.01
2022-08-18T10:15:33.373Z,21.08
2022-08-18T10:16:24.372Z,21.09
2022-08-18T10:17:24.684Z,21.17
2022-08-18T10:18:23.350Z,21.30
2022-08-18T10:19:33.692Z,21.27
2022-08-18T10:20:26.523Z,21.30
2022-08-18T10:21:24.589Z,21.44
2022-08-18T10:22:35.290Z,21.38
2022-08-18T10:23:24.322Z,21.53
2022-08-18T10:24:35.904Z,21.54
2022-08-18T10:25:24.300Z,21.45
2022-08-18T10:26:23.265Z,21.57
2022-08-18T10:27:23.279Z,21.59
2022-08-18T10:28:23.250Z,21.53
2022-08-18T10:29:23.242Z,21.57
2022-08-18T10:30:23.235Z,21.46
2022-08-18T10:31:24.168Z,21.53
2022-08-18T10:32:23.233Z,21.45
2022-08-18T10:33:23.206Z,21.61
2022-08-18T10:34:23.250Z,21.81
2022-08-18T10:35:28.709Z,21.88
2022-08-18T10:36:24.175Z,21.92
2022-08-18T10:37:26.114Z,21.94
2022-08-18T10:38:23.161Z,21.97
2022-08-18T10:39:23.200Z,21.91
2022-08-18T10:40:23.143Z,21.98
2022-08-18T10:41:23.126Z,22.04
2022-08-18T10:42:23.140Z,22.13
2022-08-18T10:43:45.412Z,22.14
2022-08-18T10:44:29.480Z,22.17
2022-08-18T10:45:24.913Z,22.20
2022-08-18T10:46:24.934Z,22.29
2022-08-18T10:47:24.843Z,22.43
2022-08-18T10:48:24.273Z,22.43
2022-08-18T10:49:23.055Z,22.53
2022-08-18T10:50:23.089Z,22.56
2022-08-18T10:51:23.040Z,22.64
2022-08-18T10:52:23.044Z,22.54
2022-08-18T10:53:39.196Z,22.57
2022-08-18T10:54:24.256Z,22.69
2022-08-18T10:55:23.005Z,22.78
2022-08-18T10:56:26.722Z,22.74
2022-08-18T10:57:22.983Z,22.82
2022-08-18T10:58:23.947Z,22.90
2022-08-18T10:59:28.237Z,22.87
2022-08-18T11:00:23.948Z,22.86
2022-08-18T11:01:22.937Z,22.89
2022-08-18T11:02:22.941Z,22.87
2022-08-18T11:03:51.087Z,22.97
2022-08-18T11:04:33.878Z,23.19
2022-08-18T11:05:23.924Z,23.24
2022-08-18T11:06:22.894Z,23.31
2022-08-18T11:07:22.900Z,23.39
2022-08-18T11:08:22.901Z,23.45
2022-08-18T11:09:22.858Z,23.42
2022-08-18T11:10:30.907Z,23.39
2022-08-18T11:11:34.764Z,23.45
2022-08-18T11:12:23.847Z,23.45
2022-08-18T11:13:22.819Z,23.42
2022-08-18T11:14:22.839Z,23.45
2022-08-18T11:15:24.030Z,23.47
2022-08-18T11:16:22.797Z,23.71
2022-08-18T11:17:22.789Z,23.87
2022-08-18T11:18:22.793Z,23.86
2022-08-18T11:19:22.803Z,23.92
2022-08-18T11:20:22.755Z,24.05
2022-08-18T11:21:22.743Z,24.01
2022-08-18T11:22:31.165Z,23.90
2022-08-18T11:23:23.728Z,23.87
2022-08-18T11:24:22.729Z,23.94
2022-08-18T11:25:22.708Z,23.94
2022-08-18T11:26:22.697Z,23.87
2022-08-18T11:27:22.733Z,23.94
2022-08-18T11:28:22.683Z,23.82
2022-08-18T11:29:23.698Z,23.82
2022-08-18T11:30:30.589Z,23.85
2022-08-18T11:31:23.827Z,23.83
2022-08-18T11:32:22.651Z,23.87
2022-08-18T11:33:24.340Z,23.92
2022-08-18T11:34:22.634Z,23.90
2022-08-18T11:35:22.615Z,23.87
2022-08-18T11:36:22.606Z,23.86
2022-08-18T11:37:22.662Z,23.94
2022-08-18T11:38:23.588Z,23.80
2022-08-18T11:39:35.952Z,23.87
2022-08-18T11:41:23.563Z,23.94
2022-08-18T11:42:25.029Z,23.87
2022-08-18T11:43:23.821Z,23.92
2022-08-18T11:44:22.529Z,23.95
2022-08-18T11:45:23.357Z,23.94
2022-08-18T11:46:28.064Z,24.07
2022-08-18T11:47:28.019Z,24.01
2022-08-18T11:48:28.072Z,24.10
2022-08-18T11:50:23.466Z,24.10
2022-08-18T11:52:28.996Z,24.05
2022-08-18T11:53:23.981Z,24.12
2022-08-18T11:54:23.462Z,24.07
2022-08-18T11:55:24.561Z,24.05
2022-08-18T11:57:23.414Z,24.07
2022-08-18T11:58:22.399Z,24.04
2022-08-18T11:59:22.384Z,23.98
2022-08-18T12:00:23.930Z,24.07
2022-08-18T12:01:22.362Z,24.14
2022-08-18T12:02:22.362Z,24.08
2022-08-18T12:03:22.365Z,24.12
2022-08-18T12:04:22.336Z,24.20
2022-08-18T12:05:22.328Z,24.16
2022-08-18T12:06:26.777Z,24.20
2022-08-18T12:07:23.306Z,24.23
2022-08-18T12:08:50.667Z,24.22
2022-08-18T12:09:54.225Z,24.00
2022-08-18T12:10:26.065Z,23.87
2022-08-18T12:12:23.260Z,24.14
2022-08-18T12:13:22.246Z,24.20
2022-08-18T12:14:30.152Z,24.32
2022-08-18T12:16:23.234Z,24.42
2022-08-18T12:17:22.221Z,24.44
2022-08-18T12:18:28.269Z,24.38
2022-08-18T12:19:24.192Z,24.37
2022-08-18T12:20:22.606Z,24.32
2022-08-18T12:21:22.188Z,24.24
2022-08-18T12:22:22.162Z,24.24
2022-08-18T12:23:22.147Z,24.38
2022-08-18T12:24:26.044Z,24.41
2022-08-18T12:25:24.849Z,24.47
2022-08-18T12:26:38.523Z,24.56
2022-08-18T12:27:23.170Z,24.52
2022-08-18T12:28:22.666Z,24.57
2022-08-18T12:29:22.096Z,24.63
2022-08-18T12:30:22.087Z,24.56
2022-08-18T12:31:22.095Z,24.60
2022-08-18T12:32:46.619Z,24.52
2022-08-18T12:34:24.869Z,24.61
2022-08-18T12:35:22.563Z,24.64
2022-08-18T12:36:22.104Z,24.57
2022-08-18T12:38:23.015Z,24.68
2022-08-18T12:39:21.998Z,24.67
2022-08-18T12:40:22.088Z,24.75
2022-08-18T12:41:23.890Z,24.75
2022-08-18T12:42:21.967Z,24.71
2022-08-18T12:43:21.969Z,24.59
2022-08-18T12:44:21.954Z,24.42
2022-08-18T12:45:21.939Z,24.24
2022-08-18T12:46:22.037Z,24.13
2022-08-18T12:47:21.916Z,24.01
2022-08-18T12:48:22.335Z,24.07
2022-08-18T12:49:21.902Z,23.98
2022-08-18T12:50:31.702Z,23.92
2022-08-18T12:51:24.772Z,23.94
2022-08-18T12:52:21.880Z,23.90
2022-08-18T12:53:30.068Z,23.82
2022-08-18T12:54:22.866Z,23.72
2022-08-18T12:55:22.460Z,23.64
2022-08-18T12:56:21.844Z,23.57
2022-08-18T12:57:33.384Z,23.57
2022-08-18T12:58:22.820Z,23.60
2022-08-18T12:59:21.806Z,23.68
2022-08-18T13:00:29.327Z,23.68
2022-08-18T13:01:23.489Z,23.77
2022-08-18T13:02:21.803Z,23.89
2022-08-18T13:03:21.773Z,23.87